Time;durP1;ratioP1;P1;durP2;ratioP2;P2;SDS_P1;SDS_P2;PMS_P1;PMS_P2;Temp;Humidity;BMP_temperature;BMP_pressure;BME280_temperature;BME280_humidity;BME280_pressure;Samples;Min_cycle;Max_cycle;Signal;HPM_P1;HPM_P2
2022/09/21 00:00:53;;;;;;;1.02;0.82;;;7.20;99.90;;;;;;5087293;28;20093;-73
2022/09/21 00:03:19;;;;;;;1.30;0.93;;;7.30;99.90;;;;;;5075178;28;20040;-74
2022/09/21 00:05:45;;;;;;;1.08;0.88;;;7.20;99.90;;;;;;5060720;28;20044;-73
2022/09/21 00:08:13;;;;;;;0.90;0.80;;;7.20;99.90;;;;;;5058828;28;20044;-72
2022/09/21 00:10:39;;;;;;;1.00;0.80;;;7.40;99.90;;;;;;5067925;28;20044;-73
2022/09/21 00:13:07;;;;;;;;;;;7.30;99.90;;;;;;5062180;28;20044;-73
2022/09/21 00:15:33;;;;;;;1.33;0.80;;;7.30;99.90;;;;;;5078836;28;19924;-72
2022/09/21 00:18:00;;;;;;;1.05;0.82;;;7.20;99.90;;;;;;5065342;28;20689;-73
2022/09/21 00:20:27;;;;;;;0.90;0.80;;;7.10;99.90;;;;;;5080142;28;20423;-73
2022/09/21 00:22:52;;;;;;;1.33;0.55;;;7.20;99.90;;;;;;5088339;28;20046;-74
2022/09/21 00:25:19;;;;;;;1.40;0.80;;;7.30;99.90;;;;;;5088587;28;20321;-73
2022/09/21 00:27:46;;;;;;;1.83;1.05;;;7.20;99.90;;;;;;5078231;28;20052;-73
2022/09/21 00:30:12;;;;;;;1.08;0.95;;;7.30;99.90;;;;;;5086885;28;20486;-73
2022/09/21 00:32:38;;;;;;;1.30;1.10;;;7.30;99.90;;;;;;5087268;28;20050;-74
2022/09/21 00:35:06;;;;;;;1.52;1.15;;;7.30;99.90;;;;;;5086386;28;20045;-73
2022/09/21 00:37:33;;;;;;;1.65;1.13;;;7.20;99.90;;;;;;5090836;28;20040;-73
2022/09/21 00:39:59;;;;;;;1.30;1.05;;;7.30;99.90;;;;;;5060939;28;20122;-73
2022/09/21 00:42:31;;;;;;;1.30;0.98;;;7.10;99.90;;;;;;5081113;28;20047;-72
2022/09/21 00:44:57;;;;;;;0.98;0.88;;;7.20;99.90;;;;;;5084248;28;20563;-72
2022/09/21 00:47:32;;;;;;;;;;;7.00;99.90;;;;;;5084669;28;20097;-73
2022/09/21 00:49:59;;;;;;;1.52;1.10;;;7.20;99.90;;;;;;5083961;28;19924;-73
2022/09/21 00:52:29;;;;;;;1.65;1.15;;;7.20;99.90;;;;;;5082839;28;20064;-73
2022/09/21 00:55:21;;;;;;;1.20;0.93;;;7.00;99.90;;;;;;5077750;28;20055;-73
2022/09/21 00:57:51;;;;;;;1.10;0.90;;;7.00;99.90;;;;;;5076583;28;20053;-73
2022/09/21 01:00:17;;;;;;;0.90;0.75;;;6.90;99.90;;;;;;5076790;28;20043;-73
2022/09/21 01:02:44;;;;;;;0.80;0.63;;;7.00;99.90;;;;;;5055314;28;20040;-74
2022/09/21 01:05:10;;;;;;;0.73;0.68;;;7.10;99.90;;;;;;5070715;28;20044;-74
2022/09/21 01:07:43;;;;;;;0.50;0.50;;;7.10;99.90;;;;;;5065717;28;20063;-74
2022/09/21 01:10:13;;;;;;;0.70;0.60;;;6.90;99.90;;;;;;5073254;28;20044;-74
2022/09/21 01:12:57;;;;;;;0.60;0.60;;;6.90;99.90;;;;;;5074820;28;20058;-73
2022/09/21 01:15:41;;;;;;;1.27;0.75;;;7.00;99.90;;;;;;5076413;28;20043;-73
2022/09/21 01:18:42;;;;;;;0.82;0.77;;;6.80;99.90;;;;;;5071169;28;20539;-73
2022/09/21 01:21:17;;;;;;;0.82;0.60;;;6.90;99.90;;;;;;5078731;28;20066;-73
2022/09/21 01:24:08;;;;;;;0.60;0.60;;;6.90;99.90;;;;;;5061463;28;20416;-73
2022/09/21 01:26:47;;;;;;;0.82;0.70;;;6.90;99.90;;;;;;5074618;28;20083;-78
2022/09/21 01:29:26;;;;;;;0.80;0.65;;;6.70;99.90;;;;;;5078179;28;20066;-78
2022/09/21 01:32:00;;;;;;;0.80;0.70;;;6.70;99.90;;;;;;5079433;28;20044;-78
2022/09/21 01:34:39;;;;;;;1.10;0.88;;;6.60;99.90;;;;;;5086444;28;20044;-78
2022/09/21 01:37:30;;;;;;;1.17;0.88;;;6.70;99.90;;;;;;5080020;28;20137;-78
2022/09/21 01:40:00;;;;;;;1.08;0.85;;;6.50;99.90;;;;;;5072166;28;20051;-78
2022/09/21 01:42:28;;;;;;;0.90;0.75;;;6.50;99.90;;;;;;5085426;28;20494;-78
2022/09/21 01:44:59;;;;;;;1.00;0.75;;;6.50;99.90;;;;;;5077555;28;20040;-79
2022/09/21 01:47:27;;;;;;;0.90;0.63;;;6.60;99.90;;;;;;5076025;28;20145;-79
2022/09/21 01:49:56;;;;;;;0.80;0.70;;;6.50;99.90;;;;;;5089074;28;20483;-79
2022/09/21 01:52:41;;;;;;;0.77;0.70;;;6.30;99.90;;;;;;5055670;28;20072;-79
2022/09/21 01:55:25;;;;;;;0.60;0.60;;;6.50;99.90;;;;;;5082879;28;20040;-79
2022/09/21 01:58:05;;;;;;;1.02;0.80;;;6.30;99.90;;;;;;5088820;28;20052;-74
2022/09/21 02:00:33;;;;;;;0.98;0.70;;;6.40;99.90;;;;;;5083732;28;20043;-74
2022/09/21 02:03:11;;;;;;;0.93;0.60;;;6.30;99.90;;;;;;5052704;28;20173;-74
2022/09/21 02:05:39;;;;;;;1.10;0.80;;;6.20;99.90;;;;;;5070794;28;20050;-74
2022/09/21 02:08:06;;;;;;;0.80;0.70;;;6.20;99.90;;;;;;5072684;28;20049;-74
2022/09/21 02:10:38;;;;;;;0.98;0.90;;;6.30;99.90;;;;;;5071512;28;20411;-74
2022/09/21 02:13:05;;;;;;;0.88;0.70;;;6.30;99.90;;;;;;5071663;28;20052;-73
2022/09/21 02:16:01;;;;;;;0.82;0.60;;;6.10;99.90;;;;;;5077928;28;20181;-74
2022/09/21 02:18:33;;;;;;;0.60;0.60;;;6.30;99.90;;;;;;5053586;28;20044;-73
2022/09/21 02:21:02;;;;;;;0.70;0.60;;;6.20;99.90;;;;;;5072729;28;20044;-74
2022/09/21 02:23:39;;;;;;;0.70;0.70;;;6.10;99.90;;;;;;5078872;28;20028;-73
2022/09/21 02:26:09;;;;;;;0.70;0.70;;;6.20;99.90;;;;;;5084916;28;20040;-74
2022/09/21 02:28:42;;;;;;;0.73;0.68;;;6.20;99.90;;;;;;5086642;28;20044;-74
2022/09/21 02:31:34;;;;;;;0.70;0.60;;;6.10;99.90;;;;;;5079322;28;20048;-74
2022/09/21 02:34:29;;;;;;;0.60;0.60;;;6.10;99.90;;;;;;5053712;28;20045;-74
2022/09/21 02:37:06;;;;;;;0.60;0.50;;;5.90;99.90;;;;;;5070726;28;20104;-74
2022/09/21 02:39:45;;;;;;;0.63;0.60;;;6.10;99.90;;;;;;5087737;28;20032;-73
2022/09/21 02:42:35;;;;;;;0.98;0.60;;;6.00;99.90;;;;;;5057214;28;20040;-75
2022/09/21 02:45:31;;;;;;;0.63;0.63;;;6.00;99.90;;;;;;5073271;28;20119;-79
2022/09/21 02:48:15;;;;;;;1.15;0.80;;;5.90;99.90;;;;;;5082793;28;20506;-78
2022/09/21 02:50:47;;;;;;;0.70;0.63;;;5.90;99.90;;;;;;5081925;28;20046;-77
2022/09/21 02:53:17;;;;;;;0.45;0.45;;;5.80;99.90;;;;;;5088209;28;20363;-78
2022/09/21 02:55:44;;;;;;;0.70;0.60;;;5.90;99.90;;;;;;5086172;28;20249;-73
2022/09/21 02:58:13;;;;;;;0.77;0.60;;;5.80;99.90;;;;;;5059275;28;20044;-73
2022/09/21 03:00:39;;;;;;;0.52;0.50;;;6.00;99.90;;;;;;5064114;28;20045;-73
2022/09/21 03:03:23;;;;;;;0.60;0.60;;;6.00;99.90;;;;;;5082753;28;20055;-74
2022/09/21 03:05:52;;;;;;;0.80;0.68;;;5.90;99.90;;;;;;5077373;28;20048;-73
2022/09/21 03:08:18;;;;;;;0.57;0.57;;;5.80;99.90;;;;;;5066692;28;20178;-73
2022/09/21 03:10:45;;;;;;;0.45;0.45;;;6.00;99.90;;;;;;5069931;28;20127;-73
2022/09/21 03:13:12;;;;;;;1.00;0.65;;;6.00;99.90;;;;;;5076044;28;20040;-73
2022/09/21 03:15:40;;;;;;;1.63;0.60;;;5.80;99.90;;;;;;5084763;28;20051;-72
2022/09/21 03:18:10;;;;;;;0.73;0.73;;;5.90;99.90;;;;;;5058512;28;20476;-73
2022/09/21 03:20:37;;;;;;;0.60;0.60;;;5.70;99.90;;;;;;5054367;28;20040;-73
2022/09/21 03:23:04;;;;;;;1.05;0.70;;;5.70;99.90;;;;;;5064707;28;20029;-73
2022/09/21 03:25:30;;;;;;;0.95;0.63;;;5.80;99.90;;;;;;5080189;28;20051;-72
2022/09/21 03:27:56;;;;;;;;;;;5.80;99.90;;;;;;5080268;28;20044;-73
2022/09/21 03:30:26;;;;;;;0.75;0.60;;;5.80;99.90;;;;;;5086276;28;20034;-73
2022/09/21 03:32:52;;;;;;;0.90;0.60;;;5.60;99.90;;;;;;5089016;28;20055;-73
2022/09/21 03:35:20;;;;;;;1.15;0.70;;;5.80;99.90;;;;;;5087236;28;20476;-73
2022/09/21 03:37:47;;;;;;;0.68;0.60;;;5.70;99.90;;;;;;5062822;28;20044;-72
2022/09/21 03:40:14;;;;;;;0.80;0.65;;;5.80;99.90;;;;;;5069874;28;20047;-73
2022/09/21 03:42:40;;;;;;;1.30;0.60;;;5.70;99.90;;;;;;5083831;28;20120;-73
2022/09/21 03:45:07;;;;;;;1.02;0.70;;;5.60;99.90;;;;;;5063162;28;20044;-73
2022/09/21 03:47:33;;;;;;;0.93;0.70;;;5.60;99.90;;;;;;5061892;28;20040;-72
2022/09/21 03:49:59;;;;;;;0.52;0.50;;;5.50;99.90;;;;;;5064610;28;20054;-72
2022/09/21 03:52:25;;;;;;;0.52;0.52;;;5.40;99.90;;;;;;5060038;28;20551;-73
2022/09/21 03:54:51;;;;;;;0.55;0.50;;;5.60;99.90;;;;;;5068914;28;20126;-72
2022/09/21 03:57:16;;;;;;;0.50;0.50;;;5.40;99.90;;;;;;5052998;28;20219;-72
2022/09/21 03:59:42;;;;;;;0.70;0.60;;;5.50;99.90;;;;;;5078245;28;20044;-73
2022/09/21 04:02:08;;;;;;;0.70;0.63;;;5.60;99.90;;;;;;5064397;28;20040;-73
2022/09/21 04:04:34;;;;;;;0.43;0.43;;;5.60;99.90;;;;;;5080125;28;20357;-72
2022/09/21 04:06:59;;;;;;;0.80;0.60;;;5.40;99.90;;;;;;5087827;28;20044;-72
2022/09/21 04:09:25;;;;;;;0.55;0.55;;;5.50;99.90;;;;;;5090484;28;20054;-72
2022/09/21 04:11:52;;;;;;;0.65;0.55;;;5.50;99.90;;;;;;5051930;28;20056;-73
2022/09/21 04:14:19;;;;;;;0.65;0.60;;;5.30;99.90;;;;;;5066921;28;20101;-72
2022/09/21 04:16:45;;;;;;;0.47;0.45;;;5.40;99.90;;;;;;5089110;28;20452;-72
2022/09/21 04:19:11;;;;;;;0.68;0.60;;;5.50;99.90;;;;;;5083541;28;20067;-72
2022/09/21 04:21:37;;;;;;;0.85;0.57;;;5.30;99.90;;;;;;5084869;28;20552;-72
2022/09/21 04:24:03;;;;;;;0.82;0.65;;;5.30;99.90;;;;;;5088394;28;20036;-72
2022/09/21 04:26:31;;;;;;;0.60;0.50;;;5.30;99.90;;;;;;5088925;28;20040;-72
2022/09/21 04:28:58;;;;;;;0.47;0.47;;;5.50;99.90;;;;;;5083323;28;20455;-71
2022/09/21 04:31:25;;;;;;;0.85;0.60;;;5.40;99.90;;;;;;5050670;28;20484;-72
2022/09/21 04:33:52;;;;;;;0.80;0.63;;;5.30;99.90;;;;;;5055097;28;20098;-71
2022/09/21 04:36:20;;;;;;;0.98;0.55;;;5.40;99.90;;;;;;5071734;28;20048;-71
2022/09/21 04:38:46;;;;;;;0.80;0.60;;;5.40;99.90;;;;;;5087085;28;20047;-71
2022/09/21 04:41:13;;;;;;;0.65;0.50;;;5.30;99.90;;;;;;5085475;28;20086;-71
2022/09/21 04:43:42;;;;;;;;;;;5.20;99.90;;;;;;5079487;28;20540;-71
2022/09/21 04:46:10;;;;;;;0.60;0.60;;;5.40;99.90;;;;;;5075825;28;19920;-71
2022/09/21 04:48:36;;;;;;;0.90;0.60;;;5.20;99.90;;;;;;5074003;28;20060;-71
2022/09/21 04:51:03;;;;;;;1.02;0.63;;;5.40;99.90;;;;;;5055180;28;20040;-71
2022/09/21 04:53:29;;;;;;;0.70;0.63;;;5.40;99.90;;;;;;5070299;28;20055;-71
2022/09/21 04:55:55;;;;;;;0.40;0.40;;;5.30;99.90;;;;;;5054996;28;20135;-71
2022/09/21 04:58:22;;;;;;;0.68;0.60;;;5.20;99.90;;;;;;5082255;28;20068;-72
2022/09/21 05:00:56;;;;;;;0.82;0.60;;;5.20;99.90;;;;;;5073668;28;20040;-71
2022/09/21 05:03:23;;;;;;;0.50;0.50;;;5.30;99.90;;;;;;5075234;28;20055;-71
2022/09/21 05:05:54;;;;;;;0.52;0.43;;;5.30;99.90;;;;;;5078613;28;20442;-72
2022/09/21 05:10:01;;;;;;;0.70;0.60;;;5.30;99.90;;;;;;5070931;28;20044;-73
2022/09/21 05:11:11;;;;;;;0.60;0.60;;;5.30;99.90;;;;;;5096227;28;20072;-72
2022/09/21 05:13:36;;;;;;;1.88;0.70;;;5.10;99.90;;;;;;5078839;28;20063;-72
2022/09/21 05:16:02;;;;;;;0.80;0.60;;;5.20;99.90;;;;;;5072021;28;20384;-72
2022/09/21 05:18:28;;;;;;;0.70;0.50;;;5.20;99.90;;;;;;5082922;28;20101;-72
2022/09/21 05:20:58;;;;;;;0.80;0.57;;;5.20;99.90;;;;;;5067864;28;20047;-72
2022/09/21 05:23:25;;;;;;;0.75;0.50;;;5.30;99.90;;;;;;5070813;28;20040;-72
2022/09/21 05:25:51;;;;;;;0.70;0.60;;;5.30;99.90;;;;;;5080994;28;20484;-71
2022/09/21 05:28:18;;;;;;;0.70;0.60;;;5.20;99.90;;;;;;5070959;28;20055;-71
2022/09/21 05:30:50;;;;;;;0.60;0.50;;;5.40;99.90;;;;;;5070833;28;20121;-72
2022/09/21 05:33:19;;;;;;;0.63;0.60;;;5.30;99.90;;;;;;5073850;28;20504;-72
2022/09/21 05:36:22;;;;;;;1.40;0.63;;;5.20;99.90;;;;;;5084490;28;20492;-72
2022/09/21 05:38:48;;;;;;;0.55;0.55;;;5.30;99.90;;;;;;5072455;28;20090;-74
2022/09/21 05:41:14;;;;;;;0.50;0.50;;;5.20;99.90;;;;;;5082711;28;20040;-72
2022/09/21 05:43:40;;;;;;;0.63;0.60;;;5.40;99.90;;;;;;5053973;28;20419;-78
2022/09/21 05:46:18;;;;;;;0.50;0.45;;;5.30;99.90;;;;;;5070870;28;20052;-78
2022/09/21 05:49:10;;;;;;;0.68;0.60;;;5.50;99.90;;;;;;5069569;28;20056;-78
2022/09/21 05:52:08;;;;;;;0.47;0.47;;;5.60;99.90;;;;;;5048779;28;20571;-78
2022/09/21 05:54:46;;;;;;;;;;;5.40;99.90;;;;;;5084700;28;20412;-77
2022/09/21 05:57:39;;;;;;;0.55;0.50;;;5.60;99.90;;;;;;5090406;28;20015;-78
2022/09/21 06:00:55;;;;;;;0.82;0.65;;;5.60;99.90;;;;;;5089967;28;20040;-78
2022/09/21 06:03:28;;;;;;;0.73;0.50;;;5.90;99.90;;;;;;5084849;28;20074;-77
2022/09/21 06:05:55;;;;;;;1.20;0.60;;;5.70;99.90;;;;;;5073087;28;20087;-78
2022/09/21 06:08:21;;;;;;;;;;;6.00;99.90;;;;;;5090503;28;20052;-77
2022/09/21 06:10:47;;;;;;;1.15;0.60;;;5.90;99.90;;;;;;5090134;28;19927;-77
2022/09/21 06:13:13;;;;;;;0.85;0.77;;;6.10;99.90;;;;;;5089844;28;20487;-72
2022/09/21 06:15:39;;;;;;;0.88;0.70;;;6.10;99.90;;;;;;5056220;28;20050;-73
2022/09/21 06:18:05;;;;;;;0.80;0.65;;;6.10;99.90;;;;;;5090223;28;20032;-72
2022/09/21 06:20:32;;;;;;;0.70;0.68;;;6.10;99.90;;;;;;5089996;28;20122;-72
2022/09/21 06:23:06;;;;;;;0.93;0.70;;;6.20;99.90;;;;;;5090271;28;20073;-77
2022/09/21 06:25:32;;;;;;;0.80;0.60;;;6.40;99.90;;;;;;5089341;28;20044;-77
2022/09/21 06:28:03;;;;;;;0.85;0.60;;;6.50;99.90;;;;;;5090145;28;20040;-78
2022/09/21 06:30:30;;;;;;;0.60;0.60;;;6.40;99.90;;;;;;5090096;28;20040;-78
2022/09/21 06:33:00;;;;;;;1.00;0.70;;;6.50;99.90;;;;;;5090113;28;20048;-77
2022/09/21 06:35:27;;;;;;;1.05;0.65;;;6.60;99.90;;;;;;5072690;28;20639;-77
2022/09/21 06:38:00;;;;;;;0.60;0.60;;;6.80;99.90;;;;;;5089803;28;20044;-78
2022/09/21 06:40:27;;;;;;;0.43;0.43;;;6.80;99.90;;;;;;5072518;28;20039;-77
2022/09/21 06:42:57;;;;;;;0.73;0.60;;;6.90;99.90;;;;;;5089486;28;20601;-78
2022/09/21 06:45:24;;;;;;;0.60;0.60;;;7.30;99.90;;;;;;5073386;28;20409;-77
2022/09/21 06:47:50;;;;;;;0.98;0.60;;;7.40;99.90;;;;;;5089473;28;20071;-77
2022/09/21 06:50:16;;;;;;;0.45;0.40;;;7.30;99.90;;;;;;5089643;28;20089;-78
2022/09/21 06:52:42;;;;;;;0.45;0.30;;;7.80;99.90;;;;;;5089568;28;20040;-77
2022/09/21 06:55:09;;;;;;;0.40;0.30;;;8.00;99.90;;;;;;5089211;28;20052;-78
2022/09/21 06:57:37;;;;;;;0.40;0.40;;;8.40;99.90;;;;;;5089343;28;20089;-78
2022/09/21 07:00:08;;;;;;;1.25;0.70;;;8.70;99.90;;;;;;5089446;28;20119;-78
2022/09/21 07:02:34;;;;;;;0.70;0.60;;;9.40;99.90;;;;;;5089392;28;20358;-73
2022/09/21 07:04:59;;;;;;;1.23;0.80;;;9.60;99.90;;;;;;5089346;28;20051;-72
2022/09/21 07:07:29;;;;;;;1.60;0.98;;;10.30;99.90;;;;;;5072274;28;20497;-72
2022/09/21 07:09:54;;;;;;;1.80;1.15;;;10.40;99.90;;;;;;5072640;28;20050;-77
2022/09/21 07:12:20;;;;;;;1.88;1.20;;;11.00;99.90;;;;;;5072602;28;20130;-72
2022/09/21 07:14:46;;;;;;;1.67;1.20;;;11.30;99.90;;;;;;5089282;28;20070;-72
2022/09/21 07:17:13;;;;;;;1.88;1.02;;;11.80;99.90;;;;;;5088915;28;20044;-73
2022/09/21 07:19:39;;;;;;;1.70;1.00;;;12.20;99.90;;;;;;5072458;28;20040;-72
2022/09/21 07:22:05;;;;;;;;;;;12.10;99.90;;;;;;5072554;28;20490;-73
2022/09/21 07:24:31;;;;;;;1.58;1.23;;;12.50;99.90;;;;;;5072440;28;19932;-72
2022/09/21 07:26:57;;;;;;;2.35;1.40;;;12.80;99.90;;;;;;5072185;28;20055;-72
2022/09/21 07:29:23;;;;;;;3.97;1.42;;;13.10;99.90;;;;;;5089163;28;20048;-73
2022/09/21 07:31:49;;;;;;;4.20;1.63;;;13.20;99.90;;;;;;5089054;28;20568;-73
2022/09/21 07:34:18;;;;;;;2.67;1.27;;;13.50;99.90;;;;;;5090213;28;20555;-73
2022/09/21 07:36:43;;;;;;;3.03;1.60;;;13.40;99.90;;;;;;5072779;28;20032;-73
2022/09/21 07:39:09;;;;;;;2.70;1.33;;;13.70;99.90;;;;;;5092809;28;20086;-73
2022/09/21 07:41:35;;;;;;;;;;;13.80;99.90;;;;;;5093526;28;20044;-78
2022/09/21 07:44:01;;;;;;;3.22;1.30;;;13.80;99.90;;;;;;5092848;28;20398;-79
2022/09/21 07:46:27;;;;;;;4.35;1.55;;;14.10;99.90;;;;;;5075738;28;20051;-79
2022/09/21 07:48:54;;;;;;;2.10;1.13;;;14.00;99.90;;;;;;5093010;28;20044;-79
2022/09/21 07:51:22;;;;;;;3.38;1.15;;;13.80;99.90;;;;;;5075494;28;20127;-79
2022/09/21 07:53:57;;;;;;;2.10;0.90;;;14.00;99.90;;;;;;5092551;28;20185;-78
2022/09/21 07:56:24;;;;;;;2.28;0.80;;;14.00;99.90;;;;;;5092428;28;20051;-79
2022/09/21 07:59:04;;;;;;;3.72;1.40;;;14.00;99.90;;;;;;5058892;28;20036;-73
2022/09/21 08:01:31;;;;;;;2.92;0.95;;;13.90;99.90;;;;;;5092243;28;20040;-73
2022/09/21 08:03:58;;;;;;;3.88;0.93;;;14.10;99.90;;;;;;5092610;28;20490;-73
2022/09/21 08:06:26;;;;;;;2.30;0.85;;;14.40;99.90;;;;;;5092066;28;20039;-73
2022/09/21 08:08:52;;;;;;;1.20;0.73;;;14.50;99.90;;;;;;5058828;28;20070;-73
2022/09/21 08:11:20;;;;;;;;;;;14.50;99.90;;;;;;5092935;28;20493;-73
2022/09/21 08:13:46;;;;;;;1.75;0.73;;;14.60;99.90;;;;;;5092489;28;19924;-73
2022/09/21 08:16:11;;;;;;;;;;;14.70;99.90;;;;;;5092738;28;20048;-73
2022/09/21 08:18:39;;;;;;;1.92;0.73;;;14.80;99.90;;;;;;5092476;28;20461;-73
2022/09/21 08:21:05;;;;;;;1.45;0.70;;;14.90;99.90;;;;;;5092194;28;20043;-73
2022/09/21 08:23:31;;;;;;;1.60;0.60;;;15.00;99.90;;;;;;5075582;28;20040;-74
2022/09/21 08:26:02;;;;;;;2.25;0.60;;;15.10;99.90;;;;;;5092225;28;20104;-73
2022/09/21 08:28:32;;;;;;;1.50;0.60;;;15.00;99.90;;;;;;5075632;28;20052;-73
2022/09/21 08:31:03;;;;;;;1.48;0.57;;;15.20;99.90;;;;;;5092070;28;20423;-73
2022/09/21 08:33:29;;;;;;;1.60;0.40;;;15.30;99.90;;;;;;5092324;28;20051;-73
2022/09/21 08:35:58;;;;;;;2.95;0.52;;;15.50;99.90;;;;;;5091749;28;20144;-73
2022/09/21 08:38:25;;;;;;;1.05;0.55;;;15.40;99.90;;;;;;5092079;28;20065;-73
2022/09/21 08:40:52;;;;;;;1.63;0.50;;;15.50;99.90;;;;;;5075059;28;20336;-73
2022/09/21 08:43:27;;;;;;;2.45;0.45;;;15.30;99.90;;;;;;5091379;28;20039;-73
2022/09/21 08:45:54;;;;;;;1.02;0.40;;;15.40;99.90;;;;;;5091712;28;20402;-73
2022/09/21 08:48:27;;;;;;;1.55;0.50;;;15.30;99.90;;;;;;5091140;28;20123;-73
2022/09/21 08:51:00;;;;;;;1.30;0.47;;;15.40;99.90;;;;;;5091628;28;20043;-74
2022/09/21 08:53:33;;;;;;;3.78;0.63;;;15.30;99.90;;;;;;5088245;28;20074;-73
2022/09/21 08:56:01;;;;;;;2.58;0.68;;;15.10;99.90;;;;;;5083554;28;20406;-73
2022/09/21 08:58:32;;;;;;;2.63;0.80;;;15.00;99.90;;;;;;5077657;28;20180;-73
2022/09/21 09:01:43;;;;;;;2.00;0.50;;;15.00;99.90;;;;;;5075827;28;20044;-80
2022/09/21 09:04:28;;;;;;;0.80;0.45;;;15.00;99.90;;;;;;5075093;28;20040;-80
2022/09/21 09:07:26;;;;;;;0.93;0.40;;;15.00;99.90;;;;;;5091121;28;20047;-80
2022/09/21 09:10:19;;;;;;;1.58;0.55;;;15.00;99.90;;;;;;5065542;28;20446;-80
2022/09/21 09:12:53;;;;;;;1.13;0.40;;;15.10;99.90;;;;;;5081103;28;20032;-76
2022/09/21 09:15:22;;;;;;;3.78;0.65;;;15.20;99.90;;;;;;5084850;28;20051;-81
2022/09/21 09:18:03;;;;;;;1.65;0.50;;;15.10;99.90;;;;;;5075077;28;20491;-78
2022/09/21 09:20:35;;;;;;;1.20;0.55;;;15.10;99.90;;;;;;5066354;28;20045;-78
2022/09/21 09:23:12;;;;;;;0.93;0.30;;;15.10;99.90;;;;;;5064584;28;20044;-79
2022/09/21 09:25:41;;;;;;;1.13;0.40;;;15.10;99.90;;;;;;5076962;28;20716;-80
2022/09/21 09:29:05;;;;;;;1.92;0.40;;;15.20;99.90;;;;;;5065206;28;20040;-80
2022/09/21 09:31:35;;;;;;;0.40;0.20;;;15.10;99.90;;;;;;5010579;28;20041;-79
2022/09/21 09:34:21;;;;;;;0.80;0.28;;;15.00;99.90;;;;;;5076845;28;20056;-79
2022/09/21 09:36:53;;;;;;;0.28;0.20;;;14.90;99.90;;;;;;5091838;28;20415;-79
2022/09/21 09:39:19;;;;;;;0.68;0.40;;;14.90;99.90;;;;;;5091774;28;20126;-78
2022/09/21 09:42:18;;;;;;;1.55;0.43;;;15.00;99.90;;;;;;5091513;28;20115;-79
2022/09/21 09:44:59;;;;;;;0.60;0.20;;;15.10;99.90;;;;;;5074942;28;20058;-78
2022/09/21 09:48:01;;;;;;;1.02;0.20;;;15.20;99.90;;;;;;5090873;28;20443;-79
2022/09/21 09:50:40;;;;;;;0.30;0.15;;;15.20;99.90;;;;;;5074680;28;20403;-78
2022/09/21 09:53:13;;;;;;;0.20;0.20;;;15.30;99.90;;;;;;5090705;28;20036;-79
2022/09/21 09:55:42;;;;;;;0.73;0.20;;;15.40;99.90;;;;;;5091017;28;20403;-79
2022/09/21 09:58:22;;;;;;;0.77;0.20;;;15.50;99.90;;;;;;5091117;28;20040;-79
2022/09/21 10:00:53;;;;;;;1.10;0.30;;;15.60;99.90;;;;;;5090600;28;20433;-79
2022/09/21 10:03:25;;;;;;;0.20;0.10;;;15.70;99.90;;;;;;5091142;28;20490;-79
2022/09/21 10:05:51;;;;;;;0.55;0.20;;;15.80;99.90;;;;;;5090839;28;20119;-78
2022/09/21 10:08:43;;;;;;;0.50;0.22;;;15.90;99.90;;;;;;5090938;28;20051;-78
2022/09/21 10:11:14;;;;;;;0.98;0.30;;;16.00;99.90;;;;;;5090832;28;20380;-79
2022/09/21 10:13:46;;;;;;;2.17;0.40;;;16.10;99.90;;;;;;5090587;28;20043;-78
2022/09/21 10:16:17;;;;;;;1.20;0.38;;;16.20;99.90;;;;;;5090459;28;20384;-78
2022/09/21 10:18:50;;;;;;;1.60;0.40;;;16.10;99.90;;;;;;5073895;28;20048;-78
2022/09/21 10:21:22;;;;;;;0.80;0.30;;;16.20;99.90;;;;;;5073764;28;20051;-78
2022/09/21 10:24:01;;;;;;;0.30;0.20;;;16.20;99.50;;;;;;5072875;28;20551;-74
2022/09/21 10:26:33;;;;;;;0.68;0.20;;;16.40;99.40;;;;;;5089898;28;20052;-74
2022/09/21 10:29:01;;;;;;;2.78;0.40;;;16.60;99.90;;;;;;5089671;28;20044;-73
2022/09/21 10:31:28;;;;;;;0.60;0.30;;;16.70;98.70;;;;;;5072841;28;20044;-73
2022/09/21 10:34:12;;;;;;;1.25;0.40;;;16.70;98.30;;;;;;5089573;28;20122;-73
2022/09/21 10:36:39;;;;;;;1.08;0.50;;;16.90;99.30;;;;;;5067723;28;20079;-72
2022/09/21 10:39:16;;;;;;;;;;;16.70;97.70;;;;;;5064671;28;20059;-72
2022/09/21 10:42:05;;;;;;;1.42;0.50;;;16.80;99.90;;;;;;5077794;28;20394;-73
2022/09/21 10:44:41;;;;;;;1.05;0.40;;;16.90;99.90;;;;;;5073564;28;20146;-73
2022/09/21 10:47:28;;;;;;;1.02;0.45;;;17.20;99.90;;;;;;5081729;28;20048;-73
2022/09/21 10:49:56;;;;;;;0.50;0.30;;;17.60;99.30;;;;;;5086407;28;20181;-73
2022/09/21 10:52:40;;;;;;;1.10;0.40;;;17.80;97.70;;;;;;5089413;28;20403;-73
2022/09/21 10:55:15;;;;;;;0.93;0.30;;;17.90;99.30;;;;;;5061873;28;20072;-73
2022/09/21 10:57:43;;;;;;;1.42;0.40;;;18.10;99.90;;;;;;5070150;28;20077;-73
2022/09/21 11:00:36;;;;;;;0.40;0.30;;;18.10;98.60;;;;;;5081720;28;20044;-73
2022/09/21 11:03:27;;;;;;;0.63;0.32;;;18.30;97.80;;;;;;5076337;28;20141;-73
2022/09/21 11:05:54;;;;;;;1.63;0.43;;;18.60;99.90;;;;;;5083031;28;20058;-73
2022/09/21 11:08:49;;;;;;;1.08;0.30;;;18.70;99.90;;;;;;5081249;28;20048;-72
2022/09/21 11:11:46;;;;;;;1.58;0.50;;;19.10;99.10;;;;;;5058504;28;20452;-72
2022/09/21 11:14:31;;;;;;;1.75;0.45;;;19.20;99.90;;;;;;5074506;28;20496;-73
2022/09/21 11:17:12;;;;;;;0.55;0.20;;;19.00;97.40;;;;;;5086769;28;20051;-73
2022/09/21 11:20:01;;;;;;;1.17;0.30;;;19.10;95.40;;;;;;5081218;28;20123;-73
2022/09/21 11:22:31;;;;;;;1.35;0.40;;;18.90;94.40;;;;;;5080660;28;20044;-73
2022/09/21 11:25:22;;;;;;;0.45;0.28;;;18.90;96.70;;;;;;5062202;28;22157;-73
2022/09/21 11:28:12;;;;;;;1.42;0.50;;;19.00;98.30;;;;;;5071980;28;20048;-73
2022/09/21 11:30:57;;;;;;;1.60;0.30;;;19.20;96.30;;;;;;5066117;28;20142;-73
2022/09/21 11:33:39;;;;;;;1.33;0.30;;;19.70;95.30;;;;;;5071913;28;20060;-73
2022/09/21 11:36:50;;;;;;;0.90;0.25;;;19.90;98.50;;;;;;5075314;28;20127;-73
2022/09/21 11:39:32;;;;;;;0.65;0.35;;;20.20;96.60;;;;;;5082229;28;20051;-73
2022/09/21 11:42:13;;;;;;;0.68;0.20;;;20.30;96.60;;;;;;5080250;28;20127;-73
2022/09/21 11:44:54;;;;;;;0.90;0.43;;;20.50;94.80;;;;;;5078906;28;20043;-73
2022/09/21 11:47:48;;;;;;;1.80;0.28;;;20.60;98.80;;;;;;5085679;28;20052;-73
2022/09/21 11:50:48;;;;;;;0.85;0.40;;;20.40;94.10;;;;;;5092767;28;20124;-73
2022/09/21 11:53:24;;;;;;;1.05;0.30;;;20.50;93.20;;;;;;5078168;28;20044;-73
2022/09/21 11:55:53;;;;;;;1.52;0.40;;;20.60;93.70;;;;;;5063548;28;20040;-73
2022/09/21 11:58:51;;;;;;;1.92;0.32;;;20.60;93.30;;;;;;5092174;28;20067;-73
2022/09/21 12:01:44;;;;;;;0.95;0.30;;;20.70;92.90;;;;;;5056067;28;20064;-73
2022/09/21 12:04:43;;;;;;;0.82;0.20;;;20.90;94.30;;;;;;5088285;28;20475;-73
2022/09/21 12:07:52;;;;;;;1.92;0.40;;;20.80;94.60;;;;;;5082794;28;20036;-73
2022/09/21 12:10:27;;;;;;;1.52;0.50;;;20.50;93.90;;;;;;5080366;28;20579;-73
2022/09/21 12:12:56;;;;;;;0.90;0.30;;;20.80;92.90;;;;;;5088524;28;20570;-73
2022/09/21 12:15:50;;;;;;;1.40;0.35;;;20.80;92.80;;;;;;5081410;28;20051;-73
2022/09/21 12:18:48;;;;;;;1.05;0.20;;;20.90;92.20;;;;;;5073032;28;20050;-73
2022/09/21 12:21:37;;;;;;;1.85;0.30;;;21.20;92.00;;;;;;5075115;28;20044;-74
2022/09/21 12:24:29;;;;;;;1.10;0.30;;;21.30;92.30;;;;;;5070580;28;20380;-74
2022/09/21 12:27:05;;;;;;;0.68;0.28;;;21.40;92.00;;;;;;5078650;28;20124;-74
2022/09/21 12:29:42;;;;;;;0.63;0.40;;;21.20;91.20;;;;;;5083765;28;20039;-73
2022/09/21 12:32:25;;;;;;;1.40;0.28;;;21.20;91.30;;;;;;5081990;28;20028;-73
2022/09/21 12:34:56;;;;;;;0.38;0.20;;;21.20;91.70;;;;;;5057750;28;20091;-73
2022/09/21 12:37:39;;;;;;;2.17;0.55;;;21.30;91.40;;;;;;5089645;28;20076;-73
2022/09/21 12:40:30;;;;;;;0.65;0.25;;;21.30;91.10;;;;;;5064644;28;20040;-79
2022/09/21 12:43:07;;;;;;;0.47;0.20;;;21.50;91.40;;;;;;5076307;28;20040;-80
2022/09/21 12:45:39;;;;;;;1.27;0.30;;;21.60;91.80;;;;;;5066475;28;20055;-79
2022/09/21 12:48:09;;;;;;;0.73;0.20;;;21.30;90.70;;;;;;5073021;28;20040;-79
2022/09/21 12:50:52;;;;;;;1.65;0.30;;;21.20;91.80;;;;;;5073954;28;20060;-79
2022/09/21 12:53:21;;;;;;;1.33;0.38;;;21.30;91.40;;;;;;5086938;28;20837;-81
2022/09/21 12:55:52;;;;;;;0.88;0.22;;;21.30;91.80;;;;;;5084287;28;20051;-80
2022/09/21 12:58:29;;;;;;;0.90;0.20;;;21.50;91.90;;;;;;5084492;28;20610;-73
2022/09/21 13:01:04;;;;;;;0.82;0.30;;;21.60;93.40;;;;;;5084760;28;20040;-73
2022/09/21 13:03:42;;;;;;;1.88;0.35;;;21.70;91.10;;;;;;5087456;28;20039;-80
2022/09/21 13:06:42;;;;;;;0.85;0.20;;;21.20;91.10;;;;;;5072417;28;20054;-80
2022/09/21 13:09:13;;;;;;;0.68;0.40;;;21.60;91.80;;;;;;5077030;28;20133;-81
2022/09/21 13:12:03;;;;;;;0.73;0.10;;;22.00;91.30;;;;;;5079340;28;20135;-80
2022/09/21 13:14:33;;;;;;;0.60;0.35;;;21.50;91.10;;;;;;5078906;28;20098;-80
2022/09/21 13:17:01;;;;;;;1.75;0.43;;;21.40;91.50;;;;;;5078673;28;20079;-80
2022/09/21 13:19:30;;;;;;;0.70;0.30;;;21.50;90.70;;;;;;5075753;28;20132;-80
2022/09/21 13:22:23;;;;;;;1.77;0.50;;;21.50;94.30;;;;;;5090255;28;20048;-81
2022/09/21 13:25:01;;;;;;;0.75;0.20;;;21.00;92.40;;;;;;5081419;28;20138;-80
2022/09/21 13:28:03;;;;;;;0.88;0.20;;;20.80;93.20;;;;;;5090215;28;20044;-79
2022/09/21 13:30:39;;;;;;;1.05;0.40;;;20.40;91.60;;;;;;5084668;28;20051;-80